createdAt,value
2023-02-06T00:00:34.254Z,-1.06
2023-02-06T00:04:37.401Z,-1.04
2023-02-06T00:08:40.620Z,-1.04
2023-02-06T00:12:45.347Z,-1.02
2023-02-06T00:16:48.979Z,-1.05
2023-02-06T00:20:51.890Z,-1.07
2023-02-06T00:24:55.095Z,-1.08
2023-02-06T00:28:59.518Z,-1.11
2023-02-06T00:33:02.692Z,-1.15
2023-02-06T00:37:06.169Z,-1.18
2023-02-06T00:41:09.300Z,-1.20
2023-02-06T00:45:13.912Z,-1.20
2023-02-06T00:49:17.544Z,-1.21
2023-02-06T00:53:20.476Z,-1.21
2023-02-06T00:57:23.681Z,-1.21
2023-02-06T01:01:28.750Z,-1.23
2023-02-06T01:05:32.160Z,-1.29
2023-02-06T01:09:36.023Z,-1.35
2023-02-06T01:13:39.357Z,-1.40
2023-02-06T01:17:44.158Z,-1.47
2023-02-06T01:21:47.566Z,-1.51
2023-02-06T01:25:50.442Z,-1.60
2023-02-06T01:29:53.754Z,-1.68
2023-02-06T01:34:00.594Z,-1.78
2023-02-06T01:38:03.480Z,-1.87
2023-02-06T01:42:07.272Z,-1.95
2023-02-06T01:46:10.946Z,-1.96
2023-02-06T01:50:17.672Z,-1.97
2023-02-06T01:54:21.520Z,-1.98
2023-02-06T01:58:31.321Z,-1.97
2023-02-06T02:02:35.951Z,-2.03
2023-02-06T02:06:42.291Z,-1.95
2023-02-06T02:10:46.075Z,-1.95
2023-02-06T02:14:51.675Z,-1.94
2023-02-06T02:19:14.348Z,-1.99
2023-02-06T02:23:41.772Z,-2.04
2023-02-06T02:28:01.888Z,-2.12
2023-02-06T02:32:27.897Z,-2.22
2023-02-06T02:36:36.158Z,-2.27
2023-02-06T02:40:49.249Z,-2.37
2023-02-06T02:44:56.929Z,-2.43
2023-02-06T02:49:06.130Z,-2.51
2023-02-06T02:53:11.006Z,-2.58
2023-02-06T02:57:18.532Z,-2.66
2023-02-06T03:01:24.308Z,-2.72
2023-02-06T03:05:28.868Z,-2.77
2023-02-06T03:09:46.286Z,-2.82
2023-02-06T03:13:55.571Z,-2.86
2023-02-06T03:18:05.448Z,-2.90
2023-02-06T03:22:08.829Z,-2.94
2023-02-06T03:26:17.421Z,-2.98
2023-02-06T03:30:25.004Z,-2.97
2023-02-06T03:34:36.890Z,-2.94
2023-02-06T03:38:39.869Z,-2.91
2023-02-06T03:42:52.188Z,-2.86
2023-02-06T03:46:57.330Z,-2.83
2023-02-06T03:51:04.068Z,-2.79
2023-02-06T03:55:12.694Z,-2.73
2023-02-06T03:59:17.715Z,-2.74
2023-02-06T04:03:23.190Z,-2.74
2023-02-06T04:07:28.702Z,-2.77
2023-02-06T04:11:31.833Z,-2.73
2023-02-06T04:15:36.376Z,-2.72
2023-02-06T04:19:40.746Z,-2.73
2023-02-06T04:23:44.066Z,-2.71
2023-02-06T04:27:46.995Z,-2.71
2023-02-06T04:31:51.494Z,-2.68
2023-02-06T04:35:54.902Z,-2.70
2023-02-06T04:39:57.773Z,-2.70
2023-02-06T04:44:01.205Z,-2.70
2023-02-06T04:48:06.067Z,-2.71
2023-02-06T04:52:09.427Z,-2.74
2023-02-06T04:56:13.893Z,-2.76
2023-02-06T05:00:17.931Z,-2.76
2023-02-06T05:04:22.173Z,-2.76
2023-02-06T05:08:25.596Z,-2.75
2023-02-06T05:12:29.463Z,-2.79
2023-02-06T05:16:34.038Z,-2.77
2023-02-06T05:20:38.298Z,-2.77
2023-02-06T05:24:41.471Z,-2.82
2023-02-06T05:28:45.092Z,-2.84
2023-02-06T05:32:48.349Z,-2.87
2023-02-06T05:36:52.749Z,-2.93
2023-02-06T05:40:55.835Z,-2.96
2023-02-06T05:45:00.321Z,-2.97
2023-02-06T05:49:03.606Z,-3.01
2023-02-06T05:53:08.106Z,-3.01
2023-02-06T05:57:11.647Z,-3.01
2023-02-06T06:01:15.263Z,-3.00
2023-02-06T06:05:18.578Z,-3.01
2023-02-06T06:09:23.427Z,-3.04
2023-02-06T06:13:26.794Z,-3.04
2023-02-06T06:17:30.056Z,-3.05
2023-02-06T06:21:34.348Z,-3.03
2023-02-06T06:25:39.283Z,-3.01
2023-02-06T06:29:42.315Z,-2.95
2023-02-06T06:33:45.842Z,-2.90
2023-02-06T06:37:48.967Z,-2.87
2023-02-06T06:41:53.973Z,-2.92
2023-02-06T06:45:57.098Z,-2.81
2023-02-06T06:50:00.399Z,-2.75
2023-02-06T06:54:34.050Z,-2.66
2023-02-06T06:58:39.059Z,-2.57
2023-02-06T07:02:42.740Z,-2.46
2023-02-06T07:06:45.857Z,-2.37
2023-02-06T07:10:49.322Z,-2.26
2023-02-06T07:14:53.761Z,-2.14
2023-02-06T07:18:57.023Z,-2.06
2023-02-06T07:23:01.795Z,-1.95
2023-02-06T07:27:05.099Z,-1.79
2023-02-06T07:31:10.222Z,-1.60
2023-02-06T07:35:15.637Z,-1.35
2023-02-06T07:39:18.813Z,-1.09
2023-02-06T07:43:21.844Z,-0.84
2023-02-06T07:47:26.524Z,-0.58
2023-02-06T07:51:30.207Z,-0.26
2023-02-06T07:55:33.455Z,0.14
2023-02-06T07:59:36.898Z,0.60
2023-02-06T08:03:41.891Z,1.08
2023-02-06T08:07:44.746Z,1.56
2023-02-06T08:11:48.082Z,2.00
2023-02-06T08:15:51.045Z,2.34
2023-02-06T08:19:55.880Z,2.56
2023-02-06T08:24:00.375Z,2.65
2023-02-06T08:28:03.297Z,2.66
2023-02-06T08:32:06.225Z,2.67
2023-02-06T08:36:12.341Z,2.73
2023-02-06T08:40:15.214Z,2.81
2023-02-06T08:44:19.938Z,2.97
2023-02-06T08:48:23.384Z,3.13
2023-02-06T08:52:28.396Z,3.27
2023-02-06T08:56:33.456Z,3.41
2023-02-06T09:00:36.847Z,3.48
2023-02-06T09:04:40.528Z,3.48
2023-02-06T09:08:44.991Z,3.43
2023-02-06T09:12:48.499Z,3.37
2023-02-06T09:16:51.941Z,3.36
2023-02-06T09:21:05.097Z,3.42
2023-02-06T09:25:10.457Z,3.51
2023-02-06T09:29:13.792Z,3.59
2023-02-06T09:33:17.100Z,3.69
2023-02-06T09:37:20.079Z,3.81
2023-02-06T09:41:31.814Z,3.99
2023-02-06T09:45:35.345Z,4.18
2023-02-06T09:49:44.863Z,4.46
2023-02-06T09:53:56.790Z,4.79
2023-02-06T09:58:08.620Z,5.16
2023-02-06T10:02:33.357Z,5.56
2023-02-06T10:06:44.449Z,5.92
2023-02-06T10:10:52.272Z,6.21
2023-02-06T10:15:01.998Z,6.46
2023-02-06T10:19:11.247Z,6.66
2023-02-06T10:23:20.060Z,6.84
2023-02-06T10:27:23.767Z,6.98
2023-02-06T10:31:47.944Z,7.04
2023-02-06T10:35:56.335Z,7.03
2023-02-06T10:40:29.279Z,7.02
2023-02-06T10:44:36.813Z,7.05
2023-02-06T10:48:46.639Z,7.01
2023-02-06T10:52:51.248Z,6.97
2023-02-06T10:56:56.881Z,6.92
2023-02-06T11:01:01.237Z,6.87
2023-02-06T11:05:10.396Z,6.78
2023-02-06T11:09:14.049Z,6.72
2023-02-06T11:13:24.658Z,6.73
2023-02-06T11:17:28.817Z,6.76
2023-02-06T11:22:11.337Z,6.84
2023-02-06T11:26:17.218Z,6.91
2023-02-06T11:30:30.035Z,7.05
2023-02-06T11:34:36.011Z,7.18
2023-02-06T11:38:54.823Z,7.36
2023-02-06T11:43:17.485Z,7.57
2023-02-06T11:47:28.426Z,7.80
2023-02-06T11:51:48.004Z,8.06
2023-02-06T11:56:03.676Z,8.28
2023-02-06T12:00:23.374Z,8.45
2023-02-06T12:04:30.944Z,8.55
2023-02-06T12:08:44.640Z,8.62
2023-02-06T12:12:53.573Z,8.57
2023-02-06T12:16:58.114Z,8.45
2023-02-06T12:21:06.496Z,8.33
2023-02-06T12:25:27.306Z,8.25
2023-02-06T12:29:36.912Z,8.15
2023-02-06T12:33:45.972Z,8.05
2023-02-06T12:37:55.636Z,8.01
2023-02-06T12:42:22.247Z,7.98
2023-02-06T12:46:29.245Z,7.96
2023-02-06T12:50:40.778Z,7.93
2023-02-06T12:54:49.661Z,7.96
2023-02-06T12:59:03.152Z,7.97
2023-02-06T13:03:22.038Z,7.90
2023-02-06T13:07:29.708Z,7.79
2023-02-06T13:11:39.250Z,7.67
2023-02-06T13:15:43.638Z,7.54
2023-02-06T13:20:09.130Z,7.43
2023-02-06T13:24:21.114Z,7.32
2023-02-06T13:29:05.007Z,7.23
2023-02-06T13:33:15.966Z,7.08
2023-02-06T13:37:34.666Z,6.96
2023-02-06T13:41:38.810Z,6.83
2023-02-06T13:45:47.370Z,6.76
2023-02-06T13:50:21.424Z,6.71
2023-02-06T13:54:58.927Z,6.77
2023-02-06T13:59:06.821Z,6.91
2023-02-06T14:03:17.612Z,7.05
2023-02-06T14:07:58.863Z,7.10
2023-02-06T14:12:31.031Z,7.13
2023-02-06T14:16:45.806Z,7.03
2023-02-06T14:20:58.541Z,6.92
2023-02-06T14:25:10.517Z,6.84
2023-02-06T14:29:29.352Z,6.73
2023-02-06T14:33:56.260Z,6.58
2023-02-06T14:38:23.271Z,6.40
2023-02-06T14:42:30.413Z,6.16
2023-02-06T14:46:34.891Z,5.92
2023-02-06T14:50:42.584Z,5.65
2023-02-06T14:54:46.107Z,5.37
2023-02-06T14:58:49.429Z,5.11
2023-02-06T15:03:07.322Z,4.79
2023-02-06T15:07:23.644Z,4.61
2023-02-06T15:11:33.013Z,4.35
2023-02-06T15:15:36.527Z,4.06
2023-02-06T15:19:41.573Z,3.85
2023-02-06T15:23:59.270Z,3.62
2023-02-06T15:28:05.934Z,3.41
2023-02-06T15:32:21.815Z,3.22
2023-02-06T15:36:32.336Z,3.03
2023-02-06T15:40:39.359Z,2.79
2023-02-06T15:44:43.161Z,2.69
2023-02-06T15:48:52.052Z,2.55
2023-02-06T15:52:57.354Z,2.40
2023-02-06T15:57:05.236Z,2.27
2023-02-06T16:01:15.530Z,2.15
2023-02-06T16:05:26.914Z,2.04
2023-02-06T16:09:32.138Z,1.94
2023-02-06T16:13:46.901Z,1.85
2023-02-06T16:17:49.977Z,1.76
2023-02-06T16:22:05.922Z,1.67
2023-02-06T16:26:18.336Z,1.57
2023-02-06T16:30:23.712Z,1.48
2023-02-06T16:34:37.630Z,1.37
2023-02-06T16:38:43.158Z,1.23
2023-02-06T16:42:49.502Z,1.10
2023-02-06T16:46:53.282Z,0.98
2023-02-06T16:50:56.530Z,0.86
2023-02-06T16:55:00.588Z,0.77
2023-02-06T16:59:05.102Z,0.69
2023-02-06T17:03:08.316Z,0.62
2023-02-06T17:07:15.881Z,0.55
2023-02-06T17:11:19.359Z,0.46
2023-02-06T17:15:24.186Z,0.39
2023-02-06T17:19:27.625Z,0.28
2023-02-06T17:23:30.507Z,0.18
2023-02-06T17:27:34.107Z,0.03
2023-02-06T17:31:38.669Z,-0.06
2023-02-06T17:35:41.941Z,-0.17
2023-02-06T17:39:44.964Z,-0.28
2023-02-06T17:43:48.285Z,-0.38
2023-02-06T17:47:54.136Z,-0.47
2023-02-06T17:51:57.208Z,-0.55
2023-02-06T17:56:05.524Z,-0.63
2023-02-06T18:00:13.454Z,-0.70
2023-02-06T18:04:20.493Z,-0.75
2023-02-06T18:08:23.946Z,-0.80
2023-02-06T18:12:27.167Z,-0.87
2023-02-06T18:16:30.919Z,-0.93
2023-02-06T18:20:37.194Z,-0.99
2023-02-06T18:24:41.398Z,-1.10
2023-02-06T18:28:45.306Z,-1.09
2023-02-06T18:32:49.360Z,-1.10
2023-02-06T18:36:53.799Z,-1.09
2023-02-06T18:40:56.935Z,-1.09
2023-02-06T18:44:59.844Z,-1.11
2023-02-06T18:49:03.270Z,-1.17
2023-02-06T18:53:08.025Z,-1.20
2023-02-06T18:57:11.137Z,-1.23
2023-02-06T19:01:16.421Z,-1.24
2023-02-06T19:05:20.231Z,-1.20
2023-02-06T19:09:24.969Z,-1.17
2023-02-06T19:13:28.067Z,-1.13
2023-02-06T19:17:31.650Z,-1.08
2023-02-06T19:21:35.042Z,-1.04
2023-02-06T19:25:42.295Z,-1.02
2023-02-06T19:29:45.286Z,-1.01
2023-02-06T19:33:48.834Z,-1.01
2023-02-06T19:37:53.019Z,-1.01
2023-02-06T19:41:58.223Z,-1.02
2023-02-06T19:46:04.038Z,-1.04
2023-02-06T19:50:08.087Z,-1.06
2023-02-06T19:54:11.250Z,-1.07
2023-02-06T19:58:16.305Z,-1.05
2023-02-06T20:02:19.795Z,-1.05
2023-02-06T20:06:23.744Z,-1.05
2023-02-06T20:10:26.948Z,-1.04
2023-02-06T20:14:32.117Z,-1.02
2023-02-06T20:18:37.183Z,-1.00
2023-02-06T20:22:41.653Z,-1.02
2023-02-06T20:26:45.113Z,-0.98
2023-02-06T20:30:49.985Z,-0.96
2023-02-06T20:34:53.304Z,-0.93
2023-02-06T20:38:58.624Z,-0.90
2023-02-06T20:43:02.106Z,-0.91
2023-02-06T20:47:06.514Z,-0.93
2023-02-06T20:51:09.701Z,-0.99
2023-02-06T20:55:13.286Z,-1.07
2023-02-06T20:59:18.255Z,-1.14
2023-02-06T21:03:23.451Z,-1.24
2023-02-06T21:07:26.846Z,-1.32
2023-02-06T21:11:31.286Z,-1.40
2023-02-06T21:15:34.772Z,-1.45
2023-02-06T21:19:39.490Z,-1.49
2023-02-06T21:23:43.944Z,-1.51
2023-02-06T21:27:47.071Z,-1.53
2023-02-06T21:31:55.753Z,-1.54
2023-02-06T21:36:08.538Z,-1.58
2023-02-06T21:40:12.323Z,-1.63
2023-02-06T21:44:15.794Z,-1.71
2023-02-06T21:48:18.638Z,-1.74
2023-02-06T21:52:23.462Z,-1.75
2023-02-06T21:56:28.825Z,-1.76
2023-02-06T22:00:31.950Z,-1.75
2023-02-06T22:04:35.342Z,-1.73
2023-02-06T22:08:41.714Z,-1.71
2023-02-06T22:12:45.067Z,-1.71
2023-02-06T22:16:48.471Z,-1.68
2023-02-06T22:20:52.734Z,-1.68
2023-02-06T22:24:57.269Z,-1.64
2023-02-06T22:29:01.288Z,-1.65
2023-02-06T22:33:04.442Z,-1.65
2023-02-06T22:37:07.783Z,-1.68
2023-02-06T22:41:15.978Z,-1.69
2023-02-06T22:45:19.556Z,-1.71
2023-02-06T22:49:24.387Z,-1.73
2023-02-06T22:53:33.403Z,-1.75
2023-02-06T22:57:38.290Z,-1.75
2023-02-06T23:01:43.763Z,-1.75
2023-02-06T23:05:47.206Z,-1.73
2023-02-06T23:09:50.407Z,-1.74
2023-02-06T23:13:55.967Z,-1.74
2023-02-06T23:17:59.629Z,-1.79
2023-02-06T23:22:02.880Z,-1.84
2023-02-06T23:26:10.477Z,-1.88
2023-02-06T23:30:16.126Z,-1.92
2023-02-06T23:34:19.811Z,-1.98
2023-02-06T23:38:23.262Z,-2.02
2023-02-06T23:42:26.366Z,-2.05
2023-02-06T23:46:34.936Z,-2.09
2023-02-06T23:50:37.829Z,-2.15
2023-02-06T23:54:41.275Z,-2.20
2023-02-06T23:58:45.105Z,-2.26
